createdAt,value
2022-11-15T00:04:39.049Z,7.31
2022-11-15T00:10:00.777Z,7.30
2022-11-15T00:15:22.579Z,7.31
2022-11-15T00:20:46.394Z,7.32
2022-11-15T00:26:08.310Z,7.38
2022-11-15T00:31:30.236Z,7.45
2022-11-15T00:36:53.333Z,7.50
2022-11-15T00:42:14.840Z,7.50
2022-11-15T00:47:36.414Z,7.44
2022-11-15T00:52:59.413Z,7.46
2022-11-15T00:58:21.232Z,7.46
2022-11-15T01:03:44.262Z,7.53
2022-11-15T01:09:07.495Z,7.55
2022-11-15T01:14:29.555Z,7.58
2022-11-15T01:19:51.651Z,7.55
2022-11-15T01:25:15.375Z,7.60
2022-11-15T01:30:38.403Z,7.65
2022-11-15T01:35:59.900Z,7.69
2022-11-15T01:41:27.994Z,7.74
2022-11-15T01:46:50.643Z,7.78
2022-11-15T01:52:17.261Z,7.86
2022-11-15T01:57:41.771Z,7.97
2022-11-15T02:03:04.380Z,8.07
2022-11-15T02:08:26.526Z,8.20
2022-11-15T02:13:49.848Z,8.29
2022-11-15T02:19:31.433Z,8.43
2022-11-15T02:25:11.728Z,8.60
2022-11-15T02:30:44.070Z,8.73
2022-11-15T02:36:12.181Z,8.84
2022-11-15T02:41:49.400Z,8.97
2022-11-15T02:47:15.916Z,9.07
2022-11-15T02:52:37.518Z,9.17
2022-11-15T02:58:26.191Z,9.25
2022-11-15T03:04:02.066Z,9.29
2022-11-15T03:09:35.856Z,9.41
2022-11-15T03:15:31.524Z,9.52
2022-11-15T03:20:56.463Z,9.57
2022-11-15T03:26:21.699Z,9.61
2022-11-15T03:31:51.681Z,9.69
2022-11-15T03:37:17.048Z,9.71
2022-11-15T03:42:44.906Z,9.76
2022-11-15T03:48:13.236Z,9.83
2022-11-15T03:53:36.865Z,9.86
2022-11-15T03:58:58.498Z,9.85
2022-11-15T04:04:20.373Z,9.83
2022-11-15T04:09:57.145Z,9.87
2022-11-15T04:15:20.533Z,9.91
2022-11-15T04:20:59.823Z,9.95
2022-11-15T04:26:24.876Z,9.99
2022-11-15T04:31:46.333Z,10.03
2022-11-15T04:37:13.758Z,10.06
2022-11-15T04:42:36.729Z,10.10
2022-11-15T04:47:58.636Z,10.08
2022-11-15T04:53:20.115Z,10.06
2022-11-15T04:58:42.974Z,10.06
2022-11-15T05:04:23.147Z,10.04
2022-11-15T05:09:44.917Z,10.03
2022-11-15T05:15:09.144Z,10.03
2022-11-15T05:20:31.234Z,10.08
2022-11-15T05:25:52.833Z,10.10
2022-11-15T05:31:17.812Z,10.17
2022-11-15T05:36:40.767Z,10.20
2022-11-15T05:42:06.837Z,10.22
2022-11-15T05:47:32.241Z,10.22
2022-11-15T05:52:54.065Z,10.23
2022-11-15T05:58:15.768Z,10.25
2022-11-15T06:03:39.073Z,10.28
2022-11-15T06:09:00.592Z,10.31
2022-11-15T06:14:22.484Z,10.33
2022-11-15T06:19:45.307Z,10.35
2022-11-15T06:25:07.238Z,10.36
2022-11-15T06:30:30.324Z,10.33
2022-11-15T06:35:53.286Z,10.33
2022-11-15T06:41:16.169Z,10.29
2022-11-15T06:46:37.494Z,10.29
2022-11-15T06:52:00.927Z,10.24
2022-11-15T06:57:22.382Z,10.19
2022-11-15T07:02:44.113Z,10.10
2022-11-15T07:08:07.576Z,10.09
2022-11-15T07:13:30.423Z,10.07
2022-11-15T07:18:52.689Z,10.11
2022-11-15T07:24:15.992Z,10.11
2022-11-15T07:29:38.152Z,10.09
2022-11-15T07:34:59.658Z,10.09
2022-11-15T07:40:22.750Z,10.17
2022-11-15T07:45:45.991Z,10.26
2022-11-15T07:51:13.750Z,10.30
2022-11-15T07:56:37.074Z,10.39
2022-11-15T08:01:58.759Z,10.47
2022-11-15T08:07:20.639Z,10.54
2022-11-15T08:12:43.919Z,10.62
2022-11-15T08:18:08.051Z,10.68
2022-11-15T08:23:30.334Z,10.76
2022-11-15T08:28:53.727Z,10.80
2022-11-15T08:34:15.769Z,10.71
2022-11-15T08:39:37.384Z,10.78
2022-11-15T08:45:01.243Z,10.93
2022-11-15T08:50:22.707Z,10.96
2022-11-15T08:55:44.176Z,11.01
2022-11-15T09:01:07.563Z,11.11
2022-11-15T09:06:29.168Z,11.36
2022-11-15T09:11:51.777Z,11.63
2022-11-15T09:17:15.390Z,11.88
2022-11-15T09:22:39.746Z,12.00
2022-11-15T09:28:01.300Z,12.07
2022-11-15T09:33:24.584Z,12.23
2022-11-15T09:38:46.692Z,12.39
2022-11-15T09:44:25.993Z,12.41
2022-11-15T09:49:57.809Z,12.56
2022-11-15T09:55:11.204Z,12.82
2022-11-15T10:05:46.614Z,13.10
2022-11-15T10:11:15.769Z,13.30
2022-11-15T10:16:49.614Z,13.40
2022-11-15T10:22:02.777Z,13.44
2022-11-15T10:27:12.951Z,13.43
2022-11-15T10:32:19.162Z,13.45
2022-11-15T10:37:32.195Z,13.48
2022-11-15T10:42:35.392Z,13.61
2022-11-15T10:47:39.885Z,13.76
2022-11-15T10:52:48.966Z,13.68
2022-11-15T10:57:54.348Z,13.66
2022-11-15T11:03:02.772Z,13.72
2022-11-15T11:08:23.899Z,13.70
2022-11-15T11:13:29.350Z,13.72
2022-11-15T11:18:37.660Z,13.71
2022-11-15T11:23:52.884Z,13.52
2022-11-15T11:29:04.789Z,13.46
2022-11-15T11:34:18.028Z,13.52
2022-11-15T11:39:35.679Z,13.61
2022-11-15T11:44:50.651Z,13.73
2022-11-15T11:49:56.089Z,13.92
2022-11-15T11:55:14.212Z,14.05
2022-11-15T12:00:21.402Z,14.13
2022-11-15T12:05:30.962Z,14.22
2022-11-15T12:10:37.918Z,14.26
2022-11-15T12:15:45.700Z,14.34
2022-11-15T12:20:56.879Z,14.45
2022-11-15T12:26:07.220Z,14.44
2022-11-15T12:31:18.498Z,14.41
2022-11-15T12:36:40.365Z,14.37
2022-11-15T12:41:46.563Z,14.29
2022-11-15T12:47:05.931Z,14.20
2022-11-15T12:52:10.790Z,14.08
2022-11-15T12:57:45.504Z,13.99
2022-11-15T13:02:50.042Z,13.87
2022-11-15T13:08:01.068Z,13.76
2022-11-15T13:13:09.649Z,13.66
2022-11-15T13:18:31.381Z,13.62
2022-11-15T13:23:34.672Z,13.63
2022-11-15T13:28:44.342Z,13.64
2022-11-15T13:33:48.096Z,13.61
2022-11-15T13:38:58.963Z,13.58
2022-11-15T13:44:05.565Z,13.60
2022-11-15T13:49:12.553Z,13.57
2022-11-15T13:54:21.840Z,13.61
2022-11-15T13:59:29.020Z,13.59
2022-11-15T14:04:35.416Z,13.56
2022-11-15T14:09:39.920Z,13.56
2022-11-15T14:14:48.788Z,13.53
2022-11-15T14:19:53.263Z,13.47
2022-11-15T14:25:19.833Z,13.36
2022-11-15T14:30:24.386Z,13.30
2022-11-15T14:35:27.784Z,13.23
2022-11-15T14:40:30.897Z,13.18
2022-11-15T14:45:35.612Z,13.15
2022-11-15T14:50:38.810Z,13.05
2022-11-15T14:55:41.923Z,13.00
2022-11-15T15:00:46.592Z,12.92
2022-11-15T15:05:49.888Z,12.94
2022-11-15T15:10:53.173Z,12.88
2022-11-15T15:15:57.736Z,12.81
2022-11-15T15:21:04.339Z,12.76
2022-11-15T15:26:07.256Z,12.68
2022-11-15T15:31:12.330Z,12.64
2022-11-15T15:36:18.937Z,12.62
2022-11-15T15:41:22.234Z,12.57
2022-11-15T15:46:26.956Z,12.52
2022-11-15T15:51:30.090Z,12.54
2022-11-15T15:56:33.369Z,12.51
2022-11-15T16:01:38.069Z,12.52
2022-11-15T16:06:46.283Z,12.45
2022-11-15T16:11:49.397Z,12.30
2022-11-15T16:16:54.107Z,12.07
2022-11-15T16:21:57.228Z,11.88
2022-11-15T16:27:00.432Z,11.68
2022-11-15T16:32:05.089Z,11.62
2022-11-15T16:37:11.112Z,11.55
2022-11-15T16:42:14.202Z,11.48
2022-11-15T16:47:20.427Z,11.44
2022-11-15T16:52:23.565Z,11.41
2022-11-15T16:57:26.993Z,11.40
2022-11-15T17:02:31.458Z,11.39
2022-11-15T17:07:34.640Z,11.31
2022-11-15T17:12:38.413Z,11.28
2022-11-15T17:17:44.012Z,11.24
2022-11-15T17:22:47.767Z,11.16
2022-11-15T17:27:51.057Z,11.10
2022-11-15T17:32:56.844Z,11.06
2022-11-15T17:38:02.020Z,10.98
2022-11-15T17:43:06.930Z,10.94
2022-11-15T17:48:11.667Z,10.92
2022-11-15T17:53:15.056Z,10.90
2022-11-15T17:58:18.795Z,10.87
2022-11-15T18:03:23.272Z,10.87
2022-11-15T18:08:26.467Z,10.85
2022-11-15T18:13:39.051Z,10.83
2022-11-15T18:18:44.221Z,10.79
2022-11-15T18:23:55.037Z,10.78
2022-11-15T18:29:05.214Z,10.78
2022-11-15T18:34:13.897Z,10.77
2022-11-15T18:39:17.345Z,10.77
2022-11-15T18:44:20.894Z,10.79
2022-11-15T18:49:25.891Z,10.81
2022-11-15T18:54:31.701Z,10.83
2022-11-15T18:59:34.865Z,10.82
2022-11-15T19:04:39.370Z,10.85
2022-11-15T19:09:42.904Z,10.86
2022-11-15T19:14:45.939Z,10.87
2022-11-15T19:19:50.750Z,10.86
2022-11-15T19:24:53.913Z,10.89
2022-11-15T19:29:56.916Z,10.91
2022-11-15T19:35:01.652Z,10.94
2022-11-15T19:40:05.936Z,10.94
2022-11-15T19:45:09.751Z,10.95
2022-11-15T19:50:14.210Z,10.97
2022-11-15T19:55:17.860Z,10.98
2022-11-15T20:00:21.608Z,10.98
2022-11-15T20:05:26.574Z,11.01
2022-11-15T20:10:29.984Z,11.03
2022-11-15T20:15:33.022Z,11.04
2022-11-15T20:20:37.527Z,11.06
2022-11-15T20:25:41.172Z,11.08
2022-11-15T20:30:45.171Z,11.09
2022-11-15T20:35:50.020Z,11.12
2022-11-15T20:40:58.892Z,11.12
2022-11-15T20:46:03.154Z,11.14
2022-11-15T20:51:11.137Z,11.15
2022-11-15T20:56:16.382Z,11.18
2022-11-15T21:01:23.948Z,11.19
2022-11-15T21:06:28.892Z,11.19
2022-11-15T21:11:49.645Z,11.25
2022-11-15T21:16:52.730Z,11.26
2022-11-15T21:21:57.457Z,11.26
2022-11-15T21:27:00.537Z,11.27
2022-11-15T21:32:07.016Z,11.30
2022-11-15T21:37:11.990Z,11.34
2022-11-15T21:42:15.050Z,11.38
2022-11-15T21:47:18.041Z,11.38
2022-11-15T21:52:22.542Z,11.39
2022-11-15T21:57:25.564Z,11.43
2022-11-15T22:02:28.669Z,11.42
2022-11-15T22:07:33.415Z,11.45
2022-11-15T22:12:36.675Z,11.43
2022-11-15T22:17:57.158Z,11.46
2022-11-15T22:23:02.237Z,11.44
2022-11-15T22:28:06.139Z,11.45
2022-11-15T22:33:09.135Z,11.46
2022-11-15T22:38:13.953Z,11.44
2022-11-15T22:43:19.762Z,11.43
2022-11-15T22:48:25.036Z,11.44
2022-11-15T22:53:30.197Z,11.41
2022-11-15T22:58:34.440Z,11.41
2022-11-15T23:03:37.790Z,11.41
2022-11-15T23:08:42.645Z,11.39
2022-11-15T23:13:46.103Z,11.40
2022-11-15T23:18:50.263Z,11.39
2022-11-15T23:23:54.796Z,11.40
2022-11-15T23:28:57.997Z,11.40
2022-11-15T23:34:00.933Z,11.41
2022-11-15T23:39:05.654Z,11.42
2022-11-15T23:44:09.083Z,11.42
2022-11-15T23:49:12.182Z,11.43
2022-11-15T23:54:16.789Z,11.42
2022-11-15T23:59:20.043Z,11.43
